createdAt,value
2022-10-15T00:00:59.247Z,1004.06
2022-10-15T00:01:59.124Z,1004.05
2022-10-15T00:02:59.112Z,1004.05
2022-10-15T00:03:59.105Z,1004.03
2022-10-15T00:04:59.089Z,1004.02
2022-10-15T00:05:59.083Z,1004.00
2022-10-15T00:06:59.066Z,1003.96
2022-10-15T00:07:59.054Z,1003.95
2022-10-15T00:08:59.043Z,1003.97
2022-10-15T00:09:59.031Z,1003.98
2022-10-15T00:10:59.018Z,1003.90
2022-10-15T00:11:59.034Z,1003.90
2022-10-15T00:12:59.043Z,1003.97
2022-10-15T00:13:58.987Z,1003.94
2022-10-15T00:14:58.988Z,1003.93
2022-10-15T00:15:58.960Z,1003.91
2022-10-15T00:16:58.960Z,1003.91
2022-10-15T00:17:58.939Z,1003.91
2022-10-15T00:18:58.926Z,1003.83
2022-10-15T00:19:58.916Z,1003.83
2022-10-15T00:20:58.904Z,1003.80
2022-10-15T00:21:58.986Z,1003.78
2022-10-15T00:22:58.888Z,1003.80
2022-10-15T00:23:58.868Z,1003.63
2022-10-15T00:24:58.861Z,1003.73
2022-10-15T00:25:58.846Z,1003.66
2022-10-15T00:26:58.835Z,1003.69
2022-10-15T00:27:58.845Z,1003.62
2022-10-15T00:28:58.890Z,1003.69
2022-10-15T00:29:58.800Z,1003.67
2022-10-15T00:30:58.910Z,1003.67
2022-10-15T00:31:58.779Z,1003.73
2022-10-15T00:32:58.768Z,1003.72
2022-10-15T00:33:58.759Z,1003.70
2022-10-15T00:34:58.750Z,1003.61
2022-10-15T00:35:58.730Z,1003.63
2022-10-15T00:36:58.718Z,1003.63
2022-10-15T00:37:58.711Z,1003.64
2022-10-15T00:39:00.693Z,1003.59
2022-10-15T00:39:58.738Z,1003.63
2022-10-15T00:40:58.681Z,1003.51
2022-10-15T00:41:58.661Z,1003.56
2022-10-15T00:42:58.655Z,1003.55
2022-10-15T00:43:58.663Z,1003.60
2022-10-15T00:44:58.626Z,1003.66
2022-10-15T00:45:58.623Z,1003.63
2022-10-15T00:46:58.604Z,1003.60
2022-10-15T00:47:58.594Z,1003.60
2022-10-15T00:48:58.621Z,1003.64
2022-10-15T00:49:58.568Z,1003.61
2022-10-15T00:50:58.563Z,1003.63
2022-10-15T00:51:58.550Z,1003.62
2022-10-15T00:52:58.533Z,1003.63
2022-10-15T00:53:58.521Z,1003.68
2022-10-15T00:54:58.511Z,1003.61
2022-10-15T00:55:58.497Z,1003.61
2022-10-15T00:56:58.488Z,1003.61
2022-10-15T00:57:58.475Z,1003.55
2022-10-15T00:58:58.468Z,1003.54
2022-10-15T00:59:58.481Z,1003.54
2022-10-15T01:00:58.533Z,1003.54
2022-10-15T01:01:58.436Z,1003.52
2022-10-15T01:02:58.429Z,1003.44
2022-10-15T01:03:58.407Z,1003.44
2022-10-15T01:04:58.394Z,1003.37
2022-10-15T01:05:58.384Z,1003.41
2022-10-15T01:06:58.371Z,1003.41
2022-10-15T01:07:58.360Z,1003.39
2022-10-15T01:08:58.349Z,1003.38
2022-10-15T01:09:58.337Z,1003.27
2022-10-15T01:10:58.333Z,1003.31
2022-10-15T01:11:58.316Z,1003.33
2022-10-15T01:12:58.307Z,1003.32
2022-10-15T01:13:58.289Z,1003.22
2022-10-15T01:14:58.280Z,1003.29
2022-10-15T01:15:58.288Z,1003.20
2022-10-15T01:16:58.257Z,1003.27
2022-10-15T01:18:00.267Z,1003.23
2022-10-15T01:18:58.238Z,1003.19
2022-10-15T01:19:58.222Z,1003.17
2022-10-15T01:20:58.213Z,1003.22
2022-10-15T01:21:58.206Z,1003.12
2022-10-15T01:22:58.191Z,1003.29
2022-10-15T01:23:58.187Z,1003.23
2022-10-15T01:24:58.164Z,1003.23
2022-10-15T01:25:58.153Z,1003.20
2022-10-15T01:26:58.141Z,1003.12
2022-10-15T01:27:58.130Z,1003.07
2022-10-15T01:28:58.179Z,1003.12
2022-10-15T01:29:58.113Z,1003.08
2022-10-15T01:30:58.099Z,1003.08
2022-10-15T01:31:58.114Z,1003.10
2022-10-15T01:32:58.080Z,1003.07
2022-10-15T01:33:58.068Z,1003.03
2022-10-15T01:34:58.055Z,1003.05
2022-10-15T01:36:00.130Z,1002.98
2022-10-15T01:36:58.028Z,1003.03
2022-10-15T01:37:58.022Z,1003.04
2022-10-15T01:38:58.004Z,1003.07
2022-10-15T01:39:57.993Z,1003.05
2022-10-15T01:40:57.984Z,1003.05
2022-10-15T01:41:57.970Z,1002.99
2022-10-15T01:42:57.959Z,1003.00
2022-10-15T01:43:57.954Z,1003.03
2022-10-15T01:44:57.945Z,1003.03
2022-10-15T01:45:57.930Z,1002.98
2022-10-15T01:46:57.912Z,1002.99
2022-10-15T01:47:57.923Z,1002.98
2022-10-15T01:48:57.890Z,1002.95
2022-10-15T01:49:57.880Z,1002.94
2022-10-15T01:50:57.867Z,1002.93
2022-10-15T01:51:57.857Z,1002.90
2022-10-15T01:52:57.844Z,1002.93
2022-10-15T01:53:57.838Z,1002.97
2022-10-15T01:54:57.837Z,1002.91
2022-10-15T01:55:57.817Z,1002.91
2022-10-15T01:56:57.803Z,1002.94
2022-10-15T01:57:57.789Z,1002.94
2022-10-15T01:58:57.782Z,1002.92
2022-10-15T01:59:57.823Z,1002.95
2022-10-15T02:00:57.843Z,1002.87
2022-10-15T02:01:58.241Z,1002.85
2022-10-15T02:02:57.739Z,1002.81
2022-10-15T02:03:57.743Z,1002.81
2022-10-15T02:04:57.716Z,1002.82
2022-10-15T02:05:57.726Z,1002.82
2022-10-15T02:06:57.681Z,1002.83
2022-10-15T02:07:57.674Z,1002.82
2022-10-15T02:08:57.763Z,1002.85
2022-10-15T02:09:57.655Z,1002.80
2022-10-15T02:10:57.637Z,1002.77
2022-10-15T02:11:57.623Z,1002.77
2022-10-15T02:12:57.611Z,1002.77
2022-10-15T02:13:57.600Z,1002.73
2022-10-15T02:14:57.587Z,1002.67
2022-10-15T02:15:57.576Z,1002.70
2022-10-15T02:16:57.564Z,1002.71
2022-10-15T02:17:57.553Z,1002.69
2022-10-15T02:18:57.547Z,1002.73
2022-10-15T02:20:57.525Z,1002.65
2022-10-15T02:21:57.515Z,1002.65
2022-10-15T02:22:57.495Z,1002.71
2022-10-15T02:23:57.483Z,1002.65
2022-10-15T02:24:57.471Z,1002.64
2022-10-15T02:25:57.461Z,1002.58
2022-10-15T02:26:57.464Z,1002.68
2022-10-15T02:27:57.438Z,1002.65
2022-10-15T02:28:57.547Z,1002.69
2022-10-15T02:29:57.419Z,1002.71
2022-10-15T02:30:57.403Z,1002.72
2022-10-15T02:31:57.397Z,1002.69
2022-10-15T02:32:57.379Z,1002.65
2022-10-15T02:33:57.369Z,1002.69
2022-10-15T02:34:57.359Z,1002.71
2022-10-15T02:35:57.371Z,1002.65
2022-10-15T02:36:57.335Z,1002.70
2022-10-15T02:37:57.326Z,1002.68
2022-10-15T02:38:57.314Z,1002.65
2022-10-15T02:39:57.300Z,1002.65
2022-10-15T02:40:57.292Z,1002.63
2022-10-15T02:41:57.276Z,1002.60
2022-10-15T02:42:57.269Z,1002.65
2022-10-15T02:43:57.264Z,1002.59
2022-10-15T02:44:57.242Z,1002.62
2022-10-15T02:45:57.232Z,1002.67
2022-10-15T02:46:57.220Z,1002.64
2022-10-15T02:47:57.207Z,1002.53
2022-10-15T02:48:57.198Z,1002.60
2022-10-15T02:49:57.184Z,1002.53
2022-10-15T02:50:57.173Z,1002.54
2022-10-15T02:51:57.188Z,1002.50
2022-10-15T02:52:57.149Z,1002.50
2022-10-15T02:53:57.142Z,1002.50
2022-10-15T02:54:57.126Z,1002.56
2022-10-15T02:55:57.116Z,1002.55
2022-10-15T02:56:57.121Z,1002.52
2022-10-15T02:57:57.091Z,1002.54
2022-10-15T02:58:57.082Z,1002.53
2022-10-15T02:59:57.075Z,1002.56
2022-10-15T03:00:57.103Z,1002.51
2022-10-15T03:01:57.051Z,1002.48
2022-10-15T03:02:57.035Z,1002.57
2022-10-15T03:03:57.023Z,1002.52
2022-10-15T03:04:57.011Z,1002.50
2022-10-15T03:05:56.998Z,1002.49
2022-10-15T03:06:56.988Z,1002.50
2022-10-15T03:07:57.000Z,1002.47
2022-10-15T03:08:56.964Z,1002.44
2022-10-15T03:09:56.958Z,1002.47
2022-10-15T03:10:56.949Z,1002.48
2022-10-15T03:11:56.930Z,1002.54
2022-10-15T03:12:56.920Z,1002.49
2022-10-15T03:13:56.907Z,1002.53
2022-10-15T03:14:56.895Z,1002.50
2022-10-15T03:15:56.884Z,1002.50
2022-10-15T03:16:56.873Z,1002.49
2022-10-15T03:17:56.862Z,1002.47
2022-10-15T03:18:56.861Z,1002.50
2022-10-15T03:19:56.837Z,1002.47
2022-10-15T03:20:56.832Z,1002.51
2022-10-15T03:21:56.816Z,1002.56
2022-10-15T03:22:56.803Z,1002.45
2022-10-15T03:23:56.818Z,1002.50
2022-10-15T03:24:56.780Z,1002.47
2022-10-15T03:25:56.780Z,1002.41
2022-10-15T03:26:56.759Z,1002.38
2022-10-15T03:27:56.746Z,1002.42
2022-10-15T03:28:56.809Z,1002.38
2022-10-15T03:29:56.728Z,1002.33
2022-10-15T03:30:56.713Z,1002.28
2022-10-15T03:31:56.699Z,1002.26
2022-10-15T03:32:56.688Z,1002.29
2022-10-15T03:33:56.675Z,1002.29
2022-10-15T03:34:56.695Z,1002.19
2022-10-15T03:35:56.653Z,1002.33
2022-10-15T03:36:56.641Z,1002.32
2022-10-15T03:37:56.630Z,1002.29
2022-10-15T03:38:56.619Z,1002.27
2022-10-15T03:39:56.631Z,1002.27
2022-10-15T03:40:56.601Z,1002.27
2022-10-15T03:41:56.585Z,1002.26
2022-10-15T03:42:56.582Z,1002.21
2022-10-15T03:43:56.570Z,1002.24
2022-10-15T03:44:56.551Z,1002.25
2022-10-15T03:45:56.543Z,1002.27
2022-10-15T03:46:56.527Z,1002.24
2022-10-15T03:47:56.518Z,1002.22
2022-10-15T03:48:56.505Z,1002.28
2022-10-15T03:49:56.493Z,1002.18
2022-10-15T03:50:56.488Z,1002.27
2022-10-15T03:51:56.469Z,1002.23
2022-10-15T03:52:56.458Z,1002.33
2022-10-15T03:53:56.447Z,1002.20
2022-10-15T03:54:56.435Z,1002.25
2022-10-15T03:55:56.452Z,1002.22
2022-10-15T03:56:56.418Z,1002.23
2022-10-15T03:57:56.403Z,1002.22
2022-10-15T03:58:56.389Z,1002.24
2022-10-15T03:59:56.378Z,1002.28
2022-10-15T04:00:56.516Z,1002.33
2022-10-15T04:01:56.358Z,1002.29
2022-10-15T04:02:56.342Z,1002.28
2022-10-15T04:03:56.338Z,1002.23
2022-10-15T04:04:56.322Z,1002.32
2022-10-15T04:05:57.697Z,1002.30
2022-10-15T04:06:56.298Z,1002.31
2022-10-15T04:07:56.284Z,1002.32
2022-10-15T04:08:56.278Z,1002.26
2022-10-15T04:09:56.266Z,1002.31
2022-10-15T04:10:56.249Z,1002.32
2022-10-15T04:11:56.267Z,1002.26
2022-10-15T04:12:56.234Z,1002.30
2022-10-15T04:13:56.228Z,1002.34
2022-10-15T04:14:56.202Z,1002.30
2022-10-15T04:15:56.195Z,1002.34
2022-10-15T04:16:56.184Z,1002.26
2022-10-15T04:17:56.172Z,1002.35
2022-10-15T04:18:56.155Z,1002.37
2022-10-15T04:19:56.148Z,1002.28
2022-10-15T04:20:56.139Z,1002.37
2022-10-15T04:21:56.124Z,1002.32
2022-10-15T04:22:56.115Z,1002.29
2022-10-15T04:23:56.099Z,1002.32
2022-10-15T04:24:56.086Z,1002.35
2022-10-15T04:25:56.075Z,1002.32
2022-10-15T04:26:56.072Z,1002.34
2022-10-15T04:27:56.076Z,1002.37
2022-10-15T04:28:56.141Z,1002.35
2022-10-15T04:29:56.030Z,1002.35
2022-10-15T04:30:56.024Z,1002.37
2022-10-15T04:31:56.005Z,1002.36
2022-10-15T04:32:55.995Z,1002.38
2022-10-15T04:33:55.984Z,1002.40
2022-10-15T04:34:55.971Z,1002.33
2022-10-15T04:35:55.969Z,1002.34
2022-10-15T04:36:55.947Z,1002.39
2022-10-15T04:37:55.946Z,1002.33
2022-10-15T04:38:55.924Z,1002.35
2022-10-15T04:39:55.914Z,1002.40
2022-10-15T04:40:55.905Z,1002.34
2022-10-15T04:41:55.896Z,1002.34
2022-10-15T04:42:55.879Z,1002.42
2022-10-15T04:43:55.893Z,1002.41
2022-10-15T04:44:55.857Z,1002.40
2022-10-15T04:45:55.857Z,1002.38
2022-10-15T04:46:55.841Z,1002.39
2022-10-15T04:47:55.824Z,1002.38
2022-10-15T04:48:55.817Z,1002.42
2022-10-15T04:49:55.798Z,1002.40
2022-10-15T04:50:55.791Z,1002.38
2022-10-15T04:51:55.784Z,1002.36
2022-10-15T04:52:55.766Z,1002.34
2022-10-15T04:53:55.753Z,1002.38
2022-10-15T04:54:55.747Z,1002.40
2022-10-15T04:55:55.727Z,1002.42
2022-10-15T04:56:55.720Z,1002.43
2022-10-15T04:57:55.705Z,1002.35
2022-10-15T04:58:55.694Z,1002.43
2022-10-15T04:59:57.799Z,1002.44
2022-10-15T05:00:55.678Z,1002.44
2022-10-15T05:01:55.722Z,1002.42
2022-10-15T05:02:55.658Z,1002.43
2022-10-15T05:03:55.636Z,1002.47
2022-10-15T05:04:55.631Z,1002.43
2022-10-15T05:05:55.613Z,1002.45
2022-10-15T05:06:57.600Z,1002.49
2022-10-15T05:07:57.591Z,1002.42
2022-10-15T05:08:55.577Z,1002.47
2022-10-15T05:09:55.567Z,1002.37
2022-10-15T05:10:55.555Z,1002.34
2022-10-15T05:11:55.542Z,1002.42
2022-10-15T05:12:56.848Z,1002.33
2022-10-15T05:13:55.519Z,1002.36
2022-10-15T05:14:55.508Z,1002.37
2022-10-15T05:15:55.587Z,1002.42
2022-10-15T05:16:55.514Z,1002.40
2022-10-15T05:17:55.491Z,1002.36
2022-10-15T05:18:57.465Z,1002.45
2022-10-15T05:19:55.455Z,1002.38
2022-10-15T05:20:55.445Z,1002.37
2022-10-15T05:21:55.436Z,1002.39
2022-10-15T05:22:57.413Z,1002.37
2022-10-15T05:23:55.406Z,1002.45
2022-10-15T05:24:55.393Z,1002.42
2022-10-15T05:25:57.381Z,1002.37
2022-10-15T05:26:55.373Z,1002.44
2022-10-15T05:27:55.356Z,1002.38
2022-10-15T05:28:55.491Z,1002.38
2022-10-15T05:29:57.339Z,1002.38
2022-10-15T05:30:55.322Z,1002.39
2022-10-15T05:31:55.333Z,1002.46
2022-10-15T05:32:55.301Z,1002.43
2022-10-15T05:33:55.287Z,1002.48
2022-10-15T05:34:55.281Z,1002.43
2022-10-15T05:35:55.273Z,1002.46
2022-10-15T05:36:55.252Z,1002.51
2022-10-15T05:37:55.248Z,1002.45
2022-10-15T05:38:55.229Z,1002.49
2022-10-15T05:39:55.218Z,1002.43
2022-10-15T05:40:55.211Z,1002.55
2022-10-15T05:41:57.193Z,1002.51
2022-10-15T05:42:55.188Z,1002.57
2022-10-15T05:43:57.176Z,1002.56
2022-10-15T05:44:55.161Z,1002.55
2022-10-15T05:45:55.156Z,1002.52
2022-10-15T05:46:55.136Z,1002.56
2022-10-15T05:47:57.149Z,1002.55
2022-10-15T05:48:55.119Z,1002.57
2022-10-15T05:49:55.101Z,1002.56
2022-10-15T05:50:55.092Z,1002.60
2022-10-15T05:52:55.068Z,1002.62
2022-10-15T05:53:55.057Z,1002.63
2022-10-15T05:54:55.045Z,1002.60
2022-10-15T05:55:55.032Z,1002.64
2022-10-15T05:56:55.022Z,1002.61
2022-10-15T05:57:55.010Z,1002.63
2022-10-15T05:58:55.001Z,1002.65
2022-10-15T05:59:54.987Z,1002.63
2022-10-15T06:00:54.979Z,1002.68
2022-10-15T06:01:55.003Z,1002.66
2022-10-15T06:02:54.968Z,1002.66
2022-10-15T06:03:54.972Z,1002.64
2022-10-15T06:04:54.928Z,1002.74
2022-10-15T06:05:54.921Z,1002.73
2022-10-15T06:06:54.910Z,1002.74
2022-10-15T06:07:54.893Z,1002.77
2022-10-15T06:08:54.885Z,1002.76
2022-10-15T06:09:54.870Z,1002.80
2022-10-15T06:10:54.859Z,1002.79
2022-10-15T06:11:54.847Z,1002.80
2022-10-15T06:12:54.835Z,1002.85
2022-10-15T06:13:54.825Z,1002.86
2022-10-15T06:14:54.818Z,1002.88
2022-10-15T06:15:54.801Z,1002.87
2022-10-15T06:16:54.793Z,1002.87
2022-10-15T06:17:54.784Z,1002.90
2022-10-15T06:18:54.777Z,1002.79
2022-10-15T06:19:54.786Z,1002.85
2022-10-15T06:20:54.743Z,1002.91
2022-10-15T06:21:54.730Z,1002.87
2022-10-15T06:22:54.724Z,1002.90
2022-10-15T06:23:54.708Z,1002.88
2022-10-15T06:24:54.702Z,1002.88
2022-10-15T06:25:54.690Z,1002.87
2022-10-15T06:26:54.675Z,1002.81
2022-10-15T06:27:54.662Z,1002.87
2022-10-15T06:28:54.721Z,1002.87
2022-10-15T06:29:54.640Z,1002.88
2022-10-15T06:30:54.631Z,1002.88
2022-10-15T06:31:54.615Z,1002.90
2022-10-15T06:32:54.606Z,1002.92
2022-10-15T06:33:54.600Z,1002.89
2022-10-15T06:34:54.587Z,1002.83
2022-10-15T06:35:54.593Z,1002.89
2022-10-15T06:36:54.557Z,1002.89
2022-10-15T06:37:57.105Z,1002.93
2022-10-15T06:38:54.539Z,1002.92
2022-10-15T06:39:54.524Z,1002.87
2022-10-15T06:40:54.518Z,1002.86
2022-10-15T06:41:54.500Z,1002.93
2022-10-15T06:42:54.494Z,1002.95
2022-10-15T06:43:54.592Z,1002.96
2022-10-15T06:44:54.465Z,1003.03
2022-10-15T06:45:54.454Z,1002.99
2022-10-15T06:46:54.443Z,1003.02
2022-10-15T06:47:54.432Z,1003.01
2022-10-15T06:48:54.424Z,1003.01
2022-10-15T06:49:54.414Z,1003.02
2022-10-15T06:50:54.401Z,1002.98
2022-10-15T06:51:54.406Z,1003.00
2022-10-15T06:52:54.405Z,1002.98
2022-10-15T06:53:54.363Z,1003.03
2022-10-15T06:54:54.352Z,1003.05
2022-10-15T06:55:54.343Z,1003.07
2022-10-15T06:56:54.335Z,1003.08
2022-10-15T06:57:54.319Z,1003.08
2022-10-15T06:58:54.314Z,1003.09
2022-10-15T06:59:54.305Z,1003.10
2022-10-15T07:00:54.284Z,1003.15
2022-10-15T07:01:54.279Z,1003.14
2022-10-15T07:02:54.267Z,1003.20
2022-10-15T07:03:54.249Z,1003.18
2022-10-15T07:04:54.241Z,1003.26
2022-10-15T07:05:54.226Z,1003.24
2022-10-15T07:06:54.218Z,1003.25
2022-10-15T07:07:54.226Z,1003.27
2022-10-15T07:08:54.191Z,1003.31
2022-10-15T07:09:54.185Z,1003.29
2022-10-15T07:10:54.169Z,1003.34
2022-10-15T07:11:54.158Z,1003.40
2022-10-15T07:12:54.148Z,1003.37
2022-10-15T07:13:54.137Z,1003.37
2022-10-15T07:14:54.124Z,1003.36
2022-10-15T07:15:54.196Z,1003.37
2022-10-15T07:16:54.102Z,1003.41
2022-10-15T07:17:54.095Z,1003.46
2022-10-15T07:18:54.081Z,1003.42
2022-10-15T07:19:54.070Z,1003.45
2022-10-15T07:20:54.056Z,1003.47
2022-10-15T07:21:54.047Z,1003.48
2022-10-15T07:22:54.034Z,1003.47
2022-10-15T07:23:54.048Z,1003.52
2022-10-15T07:24:54.014Z,1003.54
2022-10-15T07:25:54.001Z,1003.48
2022-10-15T07:26:53.996Z,1003.45
2022-10-15T07:27:53.978Z,1003.47
2022-10-15T07:28:54.042Z,1003.45
2022-10-15T07:29:53.966Z,1003.45
2022-10-15T07:30:53.944Z,1003.38
2022-10-15T07:31:54.042Z,1003.35
2022-10-15T07:32:53.928Z,1003.33
2022-10-15T07:33:53.911Z,1003.30
2022-10-15T07:34:53.900Z,1003.27
2022-10-15T07:35:53.893Z,1003.36
2022-10-15T07:36:53.882Z,1003.30
2022-10-15T07:37:53.866Z,1003.41
2022-10-15T07:38:53.996Z,1003.34
2022-10-15T07:39:53.986Z,1003.32
2022-10-15T07:40:53.833Z,1003.31
2022-10-15T07:41:53.824Z,1003.31
2022-10-15T07:42:53.811Z,1003.33
2022-10-15T07:43:53.800Z,1003.32
2022-10-15T07:44:53.790Z,1003.32
2022-10-15T07:45:53.776Z,1003.35
2022-10-15T07:46:53.767Z,1003.35
2022-10-15T07:47:53.761Z,1003.32
2022-10-15T07:48:53.742Z,1003.30
2022-10-15T07:49:53.737Z,1003.38
2022-10-15T07:50:53.728Z,1003.31
2022-10-15T07:51:53.708Z,1003.36
2022-10-15T07:52:53.697Z,1003.32
2022-10-15T07:53:53.687Z,1003.34
2022-10-15T07:54:53.675Z,1003.30
2022-10-15T07:55:53.688Z,1003.27
2022-10-15T07:56:53.651Z,1003.25
2022-10-15T07:57:53.642Z,1003.26
2022-10-15T07:58:53.637Z,1003.24
2022-10-15T07:59:53.620Z,1003.27
2022-10-15T08:00:53.611Z,1003.20
2022-10-15T08:01:53.605Z,1003.25
2022-10-15T08:02:53.585Z,1003.26
2022-10-15T08:03:53.581Z,1003.25
2022-10-15T08:04:53.574Z,1003.22
2022-10-15T08:05:53.558Z,1003.22
2022-10-15T08:06:53.541Z,1003.23
2022-10-15T08:07:53.530Z,1003.21
2022-10-15T08:08:53.519Z,1003.16
2022-10-15T08:09:53.512Z,1003.27
2022-10-15T08:10:53.495Z,1003.30
2022-10-15T08:11:53.516Z,1003.27
2022-10-15T08:12:53.479Z,1003.25
2022-10-15T08:13:53.462Z,1003.27
2022-10-15T08:14:53.456Z,1003.28
2022-10-15T08:15:56.310Z,1003.30
2022-10-15T08:16:53.426Z,1003.35
2022-10-15T08:17:53.419Z,1003.40
2022-10-15T08:18:53.408Z,1003.37
2022-10-15T08:19:53.398Z,1003.36
2022-10-15T08:20:53.389Z,1003.33
2022-10-15T08:21:53.371Z,1003.41
2022-10-15T08:22:53.358Z,1003.41
2022-10-15T08:23:53.347Z,1003.43
2022-10-15T08:24:53.338Z,1003.39
2022-10-15T08:25:53.324Z,1003.46
2022-10-15T08:26:53.313Z,1003.42
2022-10-15T08:27:53.324Z,1003.34
2022-10-15T08:28:53.363Z,1003.34
2022-10-15T08:29:53.284Z,1003.38
2022-10-15T08:30:53.273Z,1003.40
2022-10-15T08:31:53.255Z,1003.45
2022-10-15T08:32:53.246Z,1003.44
2022-10-15T08:33:53.238Z,1003.39
2022-10-15T08:34:53.231Z,1003.48
2022-10-15T08:35:53.213Z,1003.46
2022-10-15T08:36:53.201Z,1003.45
2022-10-15T08:37:53.188Z,1003.50
2022-10-15T08:38:53.226Z,1003.52
2022-10-15T08:39:53.217Z,1003.49
2022-10-15T08:40:53.156Z,1003.53
2022-10-15T08:41:53.144Z,1003.49
2022-10-15T08:42:53.133Z,1003.52
2022-10-15T08:43:53.144Z,1003.54
2022-10-15T08:44:53.137Z,1003.52
2022-10-15T08:45:53.101Z,1003.51
2022-10-15T08:46:53.088Z,1003.53
2022-10-15T08:47:53.081Z,1003.49
2022-10-15T08:48:53.070Z,1003.56
2022-10-15T08:49:53.057Z,1003.52
2022-10-15T08:50:54.079Z,1003.50
2022-10-15T08:51:53.034Z,1003.49
2022-10-15T08:52:53.027Z,1003.54
2022-10-15T08:53:53.018Z,1003.53
2022-10-15T08:54:53.001Z,1003.55
2022-10-15T08:55:52.995Z,1003.48
2022-10-15T08:56:52.977Z,1003.51
2022-10-15T08:57:52.968Z,1003.51
2022-10-15T08:58:52.963Z,1003.54
2022-10-15T08:59:52.967Z,1003.49
2022-10-15T09:00:52.934Z,1003.58
2022-10-15T09:01:52.924Z,1003.55
2022-10-15T09:02:52.984Z,1003.71
2022-10-15T09:03:52.903Z,1003.58
2022-10-15T09:04:52.893Z,1003.58
2022-10-15T09:05:52.877Z,1003.57
2022-10-15T09:06:52.871Z,1003.54
2022-10-15T09:07:54.486Z,1003.62
2022-10-15T09:08:52.844Z,1003.63
2022-10-15T09:09:52.835Z,1003.62
2022-10-15T09:10:52.824Z,1003.65
2022-10-15T09:11:52.813Z,1003.66
2022-10-15T09:12:52.801Z,1003.63
2022-10-15T09:13:52.789Z,1003.65
2022-10-15T09:14:55.677Z,1003.71
2022-10-15T09:15:52.802Z,1003.62
2022-10-15T09:16:52.754Z,1003.64
2022-10-15T09:17:52.751Z,1003.60
2022-10-15T09:18:52.737Z,1003.64
2022-10-15T09:19:52.723Z,1003.64
2022-10-15T09:20:52.717Z,1003.64
2022-10-15T09:21:52.711Z,1003.61
2022-10-15T09:22:52.690Z,1003.65
2022-10-15T09:23:52.684Z,1003.70
2022-10-15T09:24:52.667Z,1003.72
2022-10-15T09:25:52.655Z,1003.70
2022-10-15T09:26:52.646Z,1003.70
2022-10-15T09:27:52.633Z,1003.67
2022-10-15T09:28:52.753Z,1003.64
2022-10-15T09:29:52.613Z,1003.64
2022-10-15T09:30:52.600Z,1003.68
2022-10-15T09:31:52.646Z,1003.61
2022-10-15T09:32:54.382Z,1003.68
2022-10-15T09:33:52.567Z,1003.65
2022-10-15T09:34:52.560Z,1003.65
2022-10-15T09:35:52.545Z,1003.63
2022-10-15T09:36:52.543Z,1003.70
2022-10-15T09:37:52.524Z,1003.74
2022-10-15T09:38:52.513Z,1003.78
2022-10-15T09:39:52.501Z,1003.74
2022-10-15T09:40:52.491Z,1003.79
2022-10-15T09:41:52.481Z,1003.77
2022-10-15T09:42:52.486Z,1003.77
2022-10-15T09:43:52.458Z,1003.75
2022-10-15T09:44:52.450Z,1003.76
2022-10-15T09:45:52.434Z,1003.67
2022-10-15T09:46:52.433Z,1003.71
2022-10-15T09:47:52.444Z,1003.71
2022-10-15T09:48:52.400Z,1003.72
2022-10-15T09:49:52.393Z,1003.80
2022-10-15T09:50:52.376Z,1003.79
2022-10-15T09:51:52.367Z,1003.83
2022-10-15T09:52:52.356Z,1003.85
2022-10-15T09:53:52.344Z,1003.88
2022-10-15T09:54:52.331Z,1003.83
2022-10-15T09:55:52.325Z,1003.77
2022-10-15T09:56:52.309Z,1003.78
2022-10-15T09:57:52.301Z,1003.77
2022-10-15T09:58:52.297Z,1003.75
2022-10-15T09:59:52.283Z,1003.75
2022-10-15T10:00:52.272Z,1003.65
2022-10-15T10:01:52.369Z,1003.72
2022-10-15T10:02:52.245Z,1003.72
2022-10-15T10:03:52.264Z,1003.78
2022-10-15T10:04:52.222Z,1003.75
2022-10-15T10:05:52.211Z,1003.73
2022-10-15T10:06:52.208Z,1003.75
2022-10-15T10:07:52.190Z,1003.71
2022-10-15T10:08:52.180Z,1003.71
2022-10-15T10:09:52.168Z,1003.80
2022-10-15T10:10:52.158Z,1003.77
2022-10-15T10:11:52.149Z,1003.75
2022-10-15T10:12:52.141Z,1003.80
2022-10-15T10:13:52.123Z,1003.88
2022-10-15T10:14:52.112Z,1003.86
2022-10-15T10:15:57.472Z,1003.84
2022-10-15T10:16:52.090Z,1003.82
2022-10-15T10:17:52.078Z,1003.86
2022-10-15T10:18:52.067Z,1003.86
2022-10-15T10:19:52.082Z,1003.86
2022-10-15T10:20:52.050Z,1003.84
2022-10-15T10:21:52.033Z,1003.85
2022-10-15T10:22:52.064Z,1003.86
2022-10-15T10:23:52.019Z,1003.91
2022-10-15T10:24:52.014Z,1003.94
2022-10-15T10:25:51.986Z,1003.86
2022-10-15T10:26:52.048Z,1003.95
2022-10-15T10:27:51.966Z,1003.89
2022-10-15T10:28:56.625Z,1003.83
2022-10-15T10:29:52.009Z,1003.84
2022-10-15T10:30:51.934Z,1003.90
2022-10-15T10:31:51.926Z,1003.83
2022-10-15T10:32:51.910Z,1003.89
2022-10-15T10:33:51.897Z,1003.82
2022-10-15T10:34:52.985Z,1003.84
2022-10-15T10:35:51.903Z,1003.88
2022-10-15T10:36:51.869Z,1003.90
2022-10-15T10:37:51.859Z,1003.96
2022-10-15T10:38:51.842Z,1003.93
2022-10-15T10:39:51.837Z,1003.93
2022-10-15T10:40:51.819Z,1003.96
2022-10-15T10:41:51.816Z,1003.90
2022-10-15T10:42:51.805Z,1003.95
2022-10-15T10:43:51.787Z,1003.86
2022-10-15T10:44:51.782Z,1003.89
2022-10-15T10:45:51.764Z,1003.89
2022-10-15T10:46:51.752Z,1003.88
2022-10-15T10:47:51.744Z,1003.87
2022-10-15T10:48:51.729Z,1003.84
2022-10-15T10:49:51.720Z,1003.84
2022-10-15T10:50:51.709Z,1003.91
2022-10-15T10:51:51.720Z,1003.92
2022-10-15T10:52:51.687Z,1003.84
2022-10-15T10:53:51.685Z,1003.91
2022-10-15T10:54:51.665Z,1003.88
2022-10-15T10:55:51.656Z,1003.88
2022-10-15T10:56:51.642Z,1003.93
2022-10-15T10:57:51.628Z,1003.91
2022-10-15T10:58:51.619Z,1003.97
2022-10-15T10:59:51.607Z,1003.91
2022-10-15T11:00:51.658Z,1003.95
2022-10-15T11:01:51.591Z,1003.96
2022-10-15T11:02:51.574Z,1003.95
2022-10-15T11:03:51.561Z,1003.94
2022-10-15T11:04:51.550Z,1003.88
2022-10-15T11:05:51.539Z,1003.92
2022-10-15T11:06:51.528Z,1003.94
2022-10-15T11:07:51.545Z,1003.96
2022-10-15T11:08:51.510Z,1003.88
2022-10-15T11:09:55.279Z,1003.89
2022-10-15T11:10:51.482Z,1003.88
2022-10-15T11:11:51.478Z,1003.84
2022-10-15T11:12:51.462Z,1003.85
2022-10-15T11:13:51.448Z,1003.85
2022-10-15T11:14:51.438Z,1003.89
2022-10-15T11:15:51.428Z,1003.87
2022-10-15T11:16:51.417Z,1003.86
2022-10-15T11:17:51.411Z,1003.85
2022-10-15T11:18:51.395Z,1003.86
2022-10-15T11:20:12.138Z,1003.91
2022-10-15T11:20:58.712Z,1003.88
2022-10-15T11:21:51.361Z,1003.88
2022-10-15T11:22:51.356Z,1003.92
2022-10-15T11:23:51.361Z,1003.92
2022-10-15T11:25:06.021Z,1003.89
2022-10-15T11:25:51.323Z,1003.91
2022-10-15T11:27:06.347Z,1003.84
2022-10-15T11:27:51.293Z,1003.90
2022-10-15T11:28:51.337Z,1003.95
2022-10-15T11:29:51.272Z,1003.80
2022-10-15T11:30:51.260Z,1003.87
2022-10-15T11:32:01.982Z,1003.89
2022-10-15T11:33:08.296Z,1003.86
2022-10-15T11:33:51.232Z,1003.92
2022-10-15T11:34:51.215Z,1003.86
2022-10-15T11:35:53.734Z,1003.86
2022-10-15T11:36:51.192Z,1003.78
2022-10-15T11:37:51.184Z,1003.79
2022-10-15T11:38:51.178Z,1003.76
2022-10-15T11:39:51.184Z,1003.80
2022-10-15T11:40:51.153Z,1003.78
2022-10-15T11:41:51.135Z,1003.83
2022-10-15T11:42:51.124Z,1003.83
2022-10-15T11:43:51.120Z,1003.82
2022-10-15T11:44:51.105Z,1003.79
2022-10-15T11:45:51.093Z,1003.78
2022-10-15T11:46:51.084Z,1003.77
2022-10-15T11:47:51.069Z,1003.71
2022-10-15T11:48:51.062Z,1003.66
2022-10-15T11:49:51.053Z,1003.72
2022-10-15T11:50:51.038Z,1003.67
2022-10-15T11:51:51.032Z,1003.69
2022-10-15T11:52:51.023Z,1003.70
2022-10-15T11:53:51.003Z,1003.75
2022-10-15T11:54:50.991Z,1003.70
2022-10-15T11:55:51.022Z,1003.76
2022-10-15T11:56:50.972Z,1003.73
2022-10-15T11:57:50.961Z,1003.76
2022-10-15T11:58:50.980Z,1003.72
2022-10-15T11:59:50.937Z,1003.74
2022-10-15T12:00:50.929Z,1003.68
2022-10-15T12:01:50.913Z,1003.68
2022-10-15T12:02:50.906Z,1003.70
2022-10-15T12:03:50.952Z,1003.69
2022-10-15T12:04:50.884Z,1003.69
2022-10-15T12:05:50.875Z,1003.70
2022-10-15T12:06:50.856Z,1003.70
2022-10-15T12:07:50.844Z,1003.68